Time;durP1;ratioP1;P1;durP2;ratioP2;P2;SDS_P1;SDS_P2;PMS_P1;PMS_P2;Temp;Humidity;BMP_temperature;BMP_pressure;BME280_temperature;BME280_humidity;BME280_pressure;Samples;Min_cycle;Max_cycle;Signal;HPM_P1;HPM_P2
2022/12/10 00:00:00;;;;;;;2.90;1.80;;;21.50;51.50;;;;;;5057310;28;20059;-68
2022/12/10 00:02:26;;;;;;;3.05;1.80;;;21.40;51.50;;;;;;5047710;28;20527;-68
2022/12/10 00:04:51;;;;;;;2.38;1.63;;;21.40;51.60;;;;;;5046821;28;20158;-69
2022/12/10 00:07:17;;;;;;;2.78;1.80;;;21.40;51.70;;;;;;5042472;28;20040;-68
2022/12/10 00:09:42;;;;;;;2.75;1.90;;;21.30;51.70;;;;;;5042578;28;20021;-69
2022/12/10 00:12:08;;;;;;;3.47;1.88;;;21.30;51.70;;;;;;5045508;28;20027;-69
2022/12/10 00:14:34;;;;;;;3.30;1.88;;;21.30;51.80;;;;;;5042507;28;20388;-68
2022/12/10 00:16:59;;;;;;;2.63;1.60;;;21.20;51.60;;;;;;5051256;28;20112;-68
2022/12/10 00:19:25;;;;;;;2.88;1.73;;;21.20;51.70;;;;;;5042860;28;20064;-69
2022/12/10 00:21:50;;;;;;;3.15;1.80;;;21.20;51.70;;;;;;5051536;28;20028;-69
2022/12/10 00:24:16;;;;;;;2.92;1.70;;;21.10;51.80;;;;;;5051771;28;20495;-68
2022/12/10 00:26:42;;;;;;;2.67;1.60;;;21.10;51.80;;;;;;5046060;28;20029;-69
2022/12/10 00:29:11;;;;;;;2.80;1.60;;;21.10;51.90;;;;;;5053533;28;20033;-68
2022/12/10 00:31:37;;;;;;;3.50;1.73;;;21.00;51.90;;;;;;5053560;28;20112;-69
2022/12/10 00:34:05;;;;;;;3.05;1.67;;;21.00;51.90;;;;;;5056771;28;20064;-69
2022/12/10 00:36:38;;;;;;;2.63;1.70;;;20.90;52.00;;;;;;5051531;28;20060;-68
2022/12/10 00:39:04;;;;;;;2.70;1.88;;;20.90;52.00;;;;;;5049413;28;20036;-68
2022/12/10 00:41:30;;;;;;;2.53;1.60;;;20.90;52.10;;;;;;5053446;28;20487;-69
2022/12/10 00:43:56;;;;;;;2.88;1.65;;;20.90;52.10;;;;;;5038661;28;20074;-69
2022/12/10 00:46:21;;;;;;;2.40;1.70;;;20.80;52.20;;;;;;5047557;28;20108;-68
2022/12/10 00:48:47;;;;;;;2.28;1.48;;;20.80;52.20;;;;;;5057311;28;20037;-68
2022/12/10 00:51:22;;;;;;;2.58;1.60;;;20.80;52.20;;;;;;5049839;28;20048;-68
2022/12/10 00:53:50;;;;;;;2.88;1.70;;;20.70;52.80;;;;;;5052597;28;20472;-68
2022/12/10 00:56:19;;;;;;;2.60;1.50;;;20.70;52.30;;;;;;5047082;28;20544;-68
2022/12/10 00:58:45;;;;;;;2.17;1.48;;;20.70;52.30;;;;;;5044863;28;20477;-68
2022/12/10 01:01:28;;;;;;;2.92;1.60;;;20.60;52.40;;;;;;5047908;28;20120;-69
2022/12/10 01:03:56;;;;;;;2.92;1.70;;;20.60;52.40;;;;;;5044204;28;20150;-68
2022/12/10 01:06:34;;;;;;;2.50;1.50;;;20.60;52.40;;;;;;5053591;28;20108;-69
2022/12/10 01:09:04;;;;;;;2.38;1.45;;;20.60;52.40;;;;;;5057227;28;20500;-68
2022/12/10 01:11:32;;;;;;;2.20;1.42;;;20.60;52.50;;;;;;5045786;28;20104;-68
2022/12/10 01:13:59;;;;;;;2.67;1.75;;;20.50;52.50;;;;;;5044719;28;20033;-68
2022/12/10 01:16:25;;;;;;;2.63;1.50;;;20.50;52.60;;;;;;5048969;28;20469;-69
2022/12/10 01:18:56;;;;;;;2.50;1.50;;;20.50;52.50;;;;;;5037421;28;20456;-69
2022/12/10 01:21:23;;;;;;;2.10;1.35;;;20.50;52.60;;;;;;5047012;28;20087;-70
2022/12/10 01:23:50;;;;;;;2.28;1.52;;;20.40;52.60;;;;;;5052877;28;20030;-68
2022/12/10 01:26:24;;;;;;;2.15;1.40;;;20.40;52.70;;;;;;5051983;28;20145;-68
2022/12/10 01:28:55;;;;;;;2.63;1.50;;;20.40;52.70;;;;;;5049204;28;20033;-68
2022/12/10 01:31:22;;;;;;;2.58;1.50;;;20.40;52.70;;;;;;5048856;28;20025;-68
2022/12/10 01:33:49;;;;;;;2.60;1.50;;;20.40;52.70;;;;;;5047359;28;20075;-69
2022/12/10 01:36:18;;;;;;;2.45;1.50;;;20.40;52.70;;;;;;5038954;28;20029;-69
2022/12/10 01:38:45;;;;;;;2.40;1.40;;;20.40;52.80;;;;;;5050142;28;20036;-68
2022/12/10 01:41:16;;;;;;;2.40;1.40;;;20.30;52.80;;;;;;5056469;28;20110;-68
2022/12/10 01:44:01;;;;;;;2.65;1.50;;;20.30;52.80;;;;;;5056257;28;20039;-68
2022/12/10 01:46:40;;;;;;;2.40;1.40;;;20.30;52.80;;;;;;5047288;28;20481;-69
2022/12/10 01:49:09;;;;;;;2.38;1.42;;;20.30;52.90;;;;;;5033783;28;20026;-68
2022/12/10 01:51:36;;;;;;;;;;;20.30;52.90;;;;;;5042334;28;20072;-69
2022/12/10 01:54:04;;;;;;;2.28;1.60;;;20.20;53.30;;;;;;5050851;28;19997;-69
2022/12/10 01:56:32;;;;;;;2.80;1.58;;;20.20;52.90;;;;;;5056098;28;20039;-70
2022/12/10 01:58:58;;;;;;;2.08;1.48;;;20.20;53.00;;;;;;5038643;28;20486;-69
2022/12/10 02:01:36;;;;;;;2.78;1.50;;;20.20;53.00;;;;;;5040164;28;20108;-69
2022/12/10 02:04:31;;;;;;;2.13;1.30;;;20.20;53.00;;;;;;5045678;28;20036;-69
2022/12/10 02:07:34;;;;;;;2.22;1.50;;;20.10;53.00;;;;;;5040114;28;20025;-69
2022/12/10 02:10:29;;;;;;;2.40;1.50;;;20.10;53.00;;;;;;5053027;28;20032;-69
2022/12/10 02:13:02;;;;;;;2.78;1.60;;;20.10;53.10;;;;;;5036479;28;20035;-69
2022/12/10 02:15:32;;;;;;;2.63;1.75;;;20.10;53.10;;;;;;5052207;28;20052;-69
2022/12/10 02:18:13;;;;;;;2.28;1.40;;;20.10;53.20;;;;;;5048174;28;20039;-69
2022/12/10 02:20:43;;;;;;;2.65;1.60;;;20.00;53.20;;;;;;5057115;28;20025;-69
2022/12/10 02:23:13;;;;;;;2.22;1.20;;;20.00;53.20;;;;;;5051879;28;20036;-69
2022/12/10 02:26:09;;;;;;;2.42;1.48;;;20.00;53.30;;;;;;5055840;28;20037;-69
2022/12/10 02:29:14;;;;;;;2.72;1.48;;;20.00;53.80;;;;;;5008070;28;20072;-68
2022/12/10 02:31:52;;;;;;;1.92;1.23;;;20.00;53.40;;;;;;5052469;28;20032;-69
2022/12/10 02:34:20;;;;;;;2.15;1.40;;;19.90;53.30;;;;;;5048113;28;20039;-68
2022/12/10 02:36:49;;;;;;;2.00;1.20;;;19.90;53.40;;;;;;5054716;28;20035;-69
2022/12/10 02:39:20;;;;;;;2.30;1.40;;;19.90;53.40;;;;;;5058501;28;20078;-69
2022/12/10 02:41:51;;;;;;;2.22;1.50;;;19.90;53.50;;;;;;5056186;28;20025;-69
2022/12/10 02:44:18;;;;;;;2.13;1.40;;;19.90;53.50;;;;;;5052525;28;20036;-69
2022/12/10 02:46:47;;;;;;;2.08;1.30;;;19.90;53.50;;;;;;5047062;28;20030;-68
2022/12/10 02:49:15;;;;;;;2.47;1.30;;;19.90;53.60;;;;;;5049568;28;20021;-69
2022/12/10 02:51:41;;;;;;;1.90;1.30;;;19.80;53.60;;;;;;5042735;28;20055;-69
2022/12/10 02:54:38;;;;;;;1.55;1.13;;;19.80;53.60;;;;;;5055397;28;20056;-69
2022/12/10 02:57:26;;;;;;;2.13;1.20;;;19.80;53.60;;;;;;5051469;28;20032;-69
2022/12/10 03:00:07;;;;;;;2.10;1.30;;;19.80;53.60;;;;;;5053579;28;20041;-69
2022/12/10 03:02:59;;;;;;;2.08;1.20;;;19.80;53.70;;;;;;5054591;28;20538;-69
2022/12/10 03:05:34;;;;;;;1.95;1.30;;;19.80;53.70;;;;;;5051234;28;20074;-69
2022/12/10 03:08:05;;;;;;;1.73;1.20;;;19.80;53.80;;;;;;5048698;28;20029;-70
2022/12/10 03:10:30;;;;;;;2.25;1.40;;;19.70;53.70;;;;;;5032781;28;20548;-69
2022/12/10 03:13:04;;;;;;;1.90;1.20;;;19.70;53.70;;;;;;5057573;28;20052;-69
2022/12/10 03:15:34;;;;;;;2.22;1.30;;;19.70;53.70;;;;;;5040945;28;20064;-68
2022/12/10 03:18:03;;;;;;;2.10;1.20;;;19.70;53.80;;;;;;5050587;28;20022;-69
2022/12/10 03:20:32;;;;;;;1.87;1.20;;;19.70;53.80;;;;;;5048596;28;20028;-69
2022/12/10 03:22:58;;;;;;;1.98;1.30;;;19.70;53.80;;;;;;5048922;28;20284;-69
2022/12/10 03:25:26;;;;;;;1.70;1.20;;;19.70;53.80;;;;;;5047258;28;20036;-69
2022/12/10 03:27:55;;;;;;;2.22;1.30;;;19.70;53.80;;;;;;5047907;28;20026;-69
2022/12/10 03:30:21;;;;;;;1.95;1.30;;;19.70;53.80;;;;;;5050761;28;20025;-69
2022/12/10 03:32:48;;;;;;;2.00;1.13;;;19.70;53.90;;;;;;5043952;28;20053;-69
2022/12/10 03:35:16;;;;;;;1.75;1.20;;;19.70;53.90;;;;;;5057433;28;20381;-69
2022/12/10 03:37:42;;;;;;;2.28;1.30;;;19.60;53.90;;;;;;5054285;28;20073;-70
2022/12/10 03:40:10;;;;;;;1.90;1.15;;;19.60;53.90;;;;;;5062315;28;20037;-69
2022/12/10 03:42:36;;;;;;;1.75;1.20;;;19.60;53.90;;;;;;5055448;28;20475;-69
2022/12/10 03:45:03;;;;;;;1.73;1.23;;;19.60;53.90;;;;;;5046214;28;20070;-69
2022/12/10 03:47:29;;;;;;;2.10;1.40;;;19.60;54.00;;;;;;5038838;28;20033;-69
2022/12/10 03:49:55;;;;;;;2.03;1.30;;;19.60;54.00;;;;;;5047370;28;20036;-69
2022/12/10 03:52:21;;;;;;;1.63;1.20;;;19.60;54.00;;;;;;5047492;28;20219;-69
2022/12/10 03:54:46;;;;;;;1.55;1.00;;;19.60;54.00;;;;;;5044105;28;20036;-68
2022/12/10 03:57:12;;;;;;;1.98;1.30;;;19.60;54.00;;;;;;5047223;28;20028;-69
2022/12/10 03:59:38;;;;;;;1.55;1.10;;;19.60;54.00;;;;;;5050186;28;20021;-68
2022/12/10 04:02:03;;;;;;;1.55;1.13;;;19.50;54.00;;;;;;5047316;28;20111;-69
2022/12/10 04:04:29;;;;;;;1.45;1.05;;;19.50;54.00;;;;;;5051467;28;20035;-70
2022/12/10 04:06:55;;;;;;;2.15;1.30;;;19.50;54.10;;;;;;5046659;28;20087;-69
2022/12/10 04:09:20;;;;;;;1.58;1.10;;;19.50;54.00;;;;;;5048587;28;20064;-68
2022/12/10 04:11:46;;;;;;;1.77;1.30;;;19.60;54.20;;;;;;5036387;28;20124;-69
2022/12/10 04:16:57;;;;;;;1.40;1.00;;;19.50;54.10;;;;;;5047729;28;20035;-69
2022/12/10 04:19:23;;;;;;;2.08;1.50;;;19.50;54.20;;;;;;5038479;28;20621;-68
2022/12/10 04:27:31;;;;;;;1.52;1.15;;;19.50;54.20;;;;;;5050801;28;20560;-68
2022/12/10 04:29:59;;;;;;;1.65;1.15;;;19.50;54.30;;;;;;5047963;28;20044;-69
2022/12/10 04:32:27;;;;;;;1.52;1.10;;;19.50;54.30;;;;;;5046785;28;20017;-69
2022/12/10 04:34:52;;;;;;;1.75;1.20;;;19.50;54.30;;;;;;5038043;28;20026;-68
2022/12/10 04:37:19;;;;;;;2.55;1.38;;;19.50;54.30;;;;;;5048649;28;20448;-68
2022/12/10 04:39:45;;;;;;;2.55;1.30;;;19.50;54.40;;;;;;5052807;28;20116;-68
2022/12/10 04:42:12;;;;;;;1.92;1.10;;;19.50;54.40;;;;;;5046859;28;20091;-68
2022/12/10 04:44:37;;;;;;;1.58;1.08;;;19.50;54.50;;;;;;5046420;28;20377;-68
2022/12/10 04:47:05;;;;;;;1.42;1.00;;;19.40;54.50;;;;;;5046577;28;20084;-69
2022/12/10 04:49:31;;;;;;;1.90;1.20;;;19.50;54.50;;;;;;5049226;28;20464;-70
2022/12/10 04:51:56;;;;;;;2.00;1.15;;;19.40;54.50;;;;;;5022769;28;20031;-68
2022/12/10 04:54:22;;;;;;;1.75;1.10;;;19.40;54.50;;;;;;5054421;28;20031;-68
2022/12/10 04:56:48;;;;;;;1.30;1.00;;;19.40;54.50;;;;;;5049434;28;20380;-69
2022/12/10 04:59:14;;;;;;;1.95;1.17;;;19.40;54.60;;;;;;5049389;28;20495;-69
2022/12/10 05:01:40;;;;;;;1.48;1.00;;;19.40;54.50;;;;;;5037224;28;20032;-69
2022/12/10 05:04:08;;;;;;;1.45;1.00;;;19.40;54.60;;;;;;5051177;28;20392;-68
2022/12/10 05:06:34;;;;;;;1.58;1.00;;;19.40;54.60;;;;;;5053789;28;20033;-69
2022/12/10 05:09:00;;;;;;;1.52;1.20;;;19.40;54.70;;;;;;5051873;28;20405;-69
2022/12/10 05:11:28;;;;;;;1.80;1.13;;;19.40;54.70;;;;;;5040671;28;20459;-68
2022/12/10 05:13:55;;;;;;;2.00;1.15;;;19.30;54.70;;;;;;5058132;28;20488;-69
2022/12/10 05:16:23;;;;;;;2.08;1.17;;;19.30;54.80;;;;;;5059917;28;20521;-69
2022/12/10 05:18:49;;;;;;;1.63;1.08;;;19.30;54.80;;;;;;5055250;28;20121;-68
2022/12/10 05:21:17;;;;;;;1.75;1.30;;;19.30;54.80;;;;;;5049160;28;20495;-69
2022/12/10 05:23:46;;;;;;;1.40;1.00;;;19.30;54.80;;;;;;5052876;28;20511;-70
2022/12/10 05:26:18;;;;;;;1.70;1.10;;;19.30;54.80;;;;;;5058810;28;20029;-68
2022/12/10 05:28:52;;;;;;;1.33;0.90;;;19.30;54.80;;;;;;5038721;28;20037;-70
2022/12/10 05:31:21;;;;;;;2.38;1.55;;;19.30;54.90;;;;;;5047943;28;20472;-69
2022/12/10 05:33:47;;;;;;;2.67;1.00;;;19.30;54.90;;;;;;5051438;28;20388;-69
2022/12/10 05:36:16;;;;;;;1.58;1.20;;;19.30;54.90;;;;;;5047417;28;20078;-69
2022/12/10 05:38:42;;;;;;;1.65;1.17;;;19.30;55.00;;;;;;5042066;28;20496;-69
2022/12/10 05:41:16;;;;;;;1.40;1.02;;;19.30;55.00;;;;;;5039615;28;20029;-69
2022/12/10 05:43:43;;;;;;;1.85;1.10;;;19.20;55.10;;;;;;5049328;28;20029;-69
2022/12/10 05:46:12;;;;;;;1.80;1.10;;;19.20;55.00;;;;;;5051289;28;20064;-70
2022/12/10 05:48:38;;;;;;;1.95;1.23;;;19.20;55.60;;;;;;5037988;28;20384;-68
2022/12/10 05:51:09;;;;;;;1.45;1.00;;;19.20;55.60;;;;;;5047137;28;20493;-69
2022/12/10 05:53:35;;;;;;;2.15;1.23;;;19.20;55.10;;;;;;5055455;28;20502;-69
2022/12/10 05:56:09;;;;;;;1.85;1.20;;;19.20;55.10;;;;;;5047532;28;20041;-69
2022/12/10 05:58:36;;;;;;;1.77;1.25;;;19.20;55.20;;;;;;5061401;28;20123;-68
2022/12/10 06:01:11;;;;;;;1.55;1.10;;;19.20;55.20;;;;;;5058678;28;20044;-69
2022/12/10 06:03:37;;;;;;;2.10;1.30;;;19.20;55.30;;;;;;5045445;28;20091;-69
2022/12/10 06:06:04;;;;;;;2.03;1.15;;;19.10;55.20;;;;;;5037874;28;20048;-69
2022/12/10 06:08:30;;;;;;;1.70;1.10;;;19.20;55.30;;;;;;5059254;28;20036;-69
2022/12/10 06:10:58;;;;;;;2.70;1.27;;;19.20;55.30;;;;;;5055450;28;20388;-69
2022/12/10 06:13:23;;;;;;;2.13;1.15;;;19.20;55.30;;;;;;5052055;28;20033;-68
2022/12/10 06:15:49;;;;;;;1.92;1.23;;;19.10;55.30;;;;;;5055656;28;20024;-69
2022/12/10 06:18:15;;;;;;;1.92;1.20;;;19.20;55.40;;;;;;5052741;28;20029;-68
2022/12/10 06:20:40;;;;;;;1.95;1.25;;;19.20;55.40;;;;;;5053533;28;20037;-69
2022/12/10 06:23:07;;;;;;;1.65;1.27;;;19.10;55.30;;;;;;5051990;28;20059;-68
2022/12/10 06:25:33;;;;;;;1.52;1.10;;;19.10;55.40;;;;;;5055755;28;20473;-69
2022/12/10 06:27:59;;;;;;;2.03;1.15;;;19.10;55.40;;;;;;5051847;28;20028;-69
2022/12/10 06:30:25;;;;;;;2.35;1.15;;;19.10;55.40;;;;;;5056212;28;20036;-69
2022/12/10 06:32:50;;;;;;;1.70;1.20;;;19.10;55.40;;;;;;5050351;28;20056;-69
2022/12/10 06:35:16;;;;;;;1.75;1.25;;;19.10;55.40;;;;;;5049950;28;20025;-69
2022/12/10 06:37:42;;;;;;;1.63;1.15;;;19.10;55.50;;;;;;5057716;28;20074;-68
2022/12/10 06:40:08;;;;;;;1.80;1.10;;;19.10;55.50;;;;;;5058332;28;20064;-69
2022/12/10 06:42:33;;;;;;;2.28;1.45;;;19.10;55.50;;;;;;5057832;28;20037;-69
2022/12/10 06:44:59;;;;;;;1.85;1.20;;;19.10;55.50;;;;;;5051347;28;20025;-69
2022/12/10 06:47:25;;;;;;;1.88;1.20;;;19.10;55.50;;;;;;5043279;28;20444;-68
2022/12/10 06:49:51;;;;;;;2.00;1.20;;;19.10;55.50;;;;;;5051615;28;20027;-68
2022/12/10 06:52:16;;;;;;;2.05;1.30;;;19.10;55.50;;;;;;5046752;28;20017;-69
2022/12/10 06:54:42;;;;;;;1.27;1.00;;;19.10;55.50;;;;;;5049358;28;20083;-68
2022/12/10 06:57:08;;;;;;;1.83;1.20;;;19.10;55.60;;;;;;5055433;28;20036;-69
2022/12/10 06:59:33;;;;;;;2.10;1.13;;;19.10;55.60;;;;;;5045025;28;20119;-69
2022/12/10 07:01:59;;;;;;;1.75;1.20;;;19.10;55.60;;;;;;5054938;28;20033;-69
2022/12/10 07:04:25;;;;;;;2.10;1.30;;;19.10;55.60;;;;;;5049925;28;20033;-68
2022/12/10 07:06:50;;;;;;;1.92;1.20;;;19.00;55.50;;;;;;5052982;28;20461;-68
2022/12/10 07:09:16;;;;;;;2.08;1.30;;;19.10;55.60;;;;;;5060049;28;20033;-69
2022/12/10 07:11:42;;;;;;;2.08;1.40;;;19.00;55.60;;;;;;5053307;28;20375;-68
2022/12/10 07:14:11;;;;;;;1.73;1.10;;;19.10;55.70;;;;;;5051222;28;20021;-68
2022/12/10 07:16:37;;;;;;;1.98;1.20;;;19.00;55.60;;;;;;5052660;28;20533;-69
2022/12/10 07:19:03;;;;;;;2.30;1.30;;;19.00;55.60;;;;;;5039449;28;20468;-70
2022/12/10 07:21:31;;;;;;;1.92;1.30;;;19.00;55.60;;;;;;5047872;28;20052;-69
2022/12/10 07:24:00;;;;;;;2.10;1.20;;;19.00;55.70;;;;;;5042381;28;20025;-69
2022/12/10 07:26:27;;;;;;;2.00;1.20;;;19.00;55.60;;;;;;5041833;28;20025;-69
2022/12/10 07:28:52;;;;;;;1.95;1.23;;;19.00;55.60;;;;;;5047630;28;20040;-69
2022/12/10 07:31:18;;;;;;;1.60;1.00;;;19.00;55.60;;;;;;5035774;28;20025;-69
2022/12/10 07:33:44;;;;;;;2.33;1.20;;;19.00;55.60;;;;;;5043873;28;20022;-70
2022/12/10 07:36:11;;;;;;;1.67;1.10;;;19.00;55.60;;;;;;5041548;28;20070;-69
2022/12/10 07:38:38;;;;;;;1.98;1.30;;;19.00;55.70;;;;;;5043561;28;20028;-69
2022/12/10 07:41:09;;;;;;;1.65;1.20;;;19.00;55.70;;;;;;5050841;28;20032;-70
2022/12/10 07:43:36;;;;;;;2.13;1.20;;;19.00;55.70;;;;;;5049505;28;20048;-69
2022/12/10 07:46:30;;;;;;;1.50;1.10;;;19.00;55.70;;;;;;5054005;28;20039;-69
2022/12/10 07:48:56;;;;;;;2.20;1.33;;;19.00;55.70;;;;;;5046481;28;20044;-69
2022/12/10 07:51:22;;;;;;;2.50;1.30;;;19.00;55.70;;;;;;5048962;28;20024;-69
2022/12/10 07:53:51;;;;;;;1.50;1.10;;;19.00;55.70;;;;;;5041823;28;20017;-69
2022/12/10 07:56:17;;;;;;;2.10;1.20;;;19.00;55.70;;;;;;5057726;28;20025;-70
2022/12/10 07:58:44;;;;;;;2.13;1.35;;;19.00;55.70;;;;;;5054418;28;20109;-69
2022/12/10 08:01:13;;;;;;;2.47;1.48;;;19.00;55.70;;;;;;5051743;28;20049;-69
2022/12/10 08:03:39;;;;;;;2.00;1.30;;;18.90;55.70;;;;;;5052108;28;20031;-69
2022/12/10 08:06:13;;;;;;;1.85;1.30;;;18.90;55.70;;;;;;5045868;28;20484;-69
2022/12/10 08:08:40;;;;;;;1.63;1.20;;;18.90;55.70;;;;;;5051268;28;20504;-69
2022/12/10 08:11:06;;;;;;;2.10;1.40;;;18.90;55.70;;;;;;5056352;28;20024;-69
2022/12/10 08:13:33;;;;;;;1.90;1.30;;;18.90;55.80;;;;;;5044266;28;20524;-69
2022/12/10 08:16:03;;;;;;;1.85;1.20;;;18.90;55.80;;;;;;5053461;28;20468;-69
2022/12/10 08:18:30;;;;;;;2.03;1.30;;;18.90;55.80;;;;;;5054055;28;20032;-69
2022/12/10 08:20:56;;;;;;;2.33;1.27;;;18.90;55.80;;;;;;5056771;28;20025;-69
2022/12/10 08:23:21;;;;;;;2.97;1.20;;;18.90;55.80;;;;;;5057014;28;20400;-70
2022/12/10 08:25:47;;;;;;;2.25;1.40;;;18.90;55.80;;;;;;5050242;28;20057;-69
2022/12/10 08:28:12;;;;;;;2.22;1.50;;;18.90;55.80;;;;;;5051210;28;20070;-70
2022/12/10 08:30:38;;;;;;;1.50;1.13;;;18.90;55.90;;;;;;5044037;28;20124;-69
2022/12/10 08:33:04;;;;;;;2.00;1.40;;;18.90;55.90;;;;;;5052217;28;20277;-70
2022/12/10 08:35:30;;;;;;;2.13;1.45;;;18.90;55.80;;;;;;5064059;28;20035;-70
2022/12/10 08:37:55;;;;;;;1.88;1.10;;;18.90;55.90;;;;;;5061004;28;20451;-69
2022/12/10 08:40:21;;;;;;;1.77;1.20;;;18.90;56.00;;;;;;5055013;28;20586;-70
2022/12/10 08:42:46;;;;;;;1.77;1.30;;;18.90;55.90;;;;;;5046841;28;20106;-70
2022/12/10 08:45:12;;;;;;;2.10;1.42;;;18.90;55.90;;;;;;5042872;28;20029;-70
2022/12/10 08:47:38;;;;;;;1.85;1.23;;;18.90;56.00;;;;;;5056508;28;20432;-69
2022/12/10 08:50:04;;;;;;;2.20;1.25;;;18.90;56.00;;;;;;5051177;28;20087;-70
2022/12/10 08:52:30;;;;;;;1.95;1.42;;;18.90;56.00;;;;;;5052762;28;20100;-70
2022/12/10 08:54:55;;;;;;;2.83;1.30;;;18.90;56.00;;;;;;5052172;28;20104;-69
2022/12/10 08:57:21;;;;;;;1.75;1.13;;;18.80;55.90;;;;;;5039562;28;20163;-70
2022/12/10 08:59:47;;;;;;;1.95;1.42;;;18.90;56.00;;;;;;5043421;28;20021;-70
2022/12/10 09:02:12;;;;;;;2.50;1.80;;;18.90;56.00;;;;;;5039778;28;20119;-70
2022/12/10 09:04:39;;;;;;;2.95;2.00;;;18.90;55.90;;;;;;5050943;28;20032;-69
2022/12/10 09:07:04;;;;;;;3.10;2.50;;;18.90;56.00;;;;;;5055717;28;20024;-69
2022/12/10 09:09:31;;;;;;;3.50;3.00;;;18.90;56.00;;;;;;5049436;28;20017;-70
2022/12/10 09:11:57;;;;;;;4.50;4.10;;;18.90;56.10;;;;;;5059414;28;20023;-69
2022/12/10 09:14:23;;;;;;;3.97;3.58;;;18.90;56.00;;;;;;5042354;28;20029;-69
2022/12/10 09:16:49;;;;;;;3.45;3.10;;;18.90;56.50;;;;;;5031176;28;20078;-69
2022/12/10 09:19:15;;;;;;;3.50;2.95;;;18.90;56.00;;;;;;5049556;28;20368;-69
2022/12/10 09:21:40;;;;;;;4.13;3.33;;;18.90;56.10;;;;;;5056941;28;20028;-69
2022/12/10 09:24:06;;;;;;;4.20;3.80;;;18.90;56.10;;;;;;5058675;28;20059;-69
2022/12/10 09:26:32;;;;;;;4.63;3.60;;;18.90;56.10;;;;;;5039450;28;20052;-69
2022/12/10 09:28:59;;;;;;;4.38;3.60;;;18.90;56.10;;;;;;5038800;28;20109;-69
2022/12/10 09:31:26;;;;;;;4.30;3.88;;;18.90;56.10;;;;;;5052195;28;20035;-69
2022/12/10 09:33:53;;;;;;;4.38;3.92;;;18.90;56.10;;;;;;5062886;28;20108;-69
2022/12/10 09:36:20;;;;;;;4.30;3.90;;;18.80;56.20;;;;;;5054839;28;20022;-70
2022/12/10 09:38:46;;;;;;;4.40;4.00;;;18.90;56.20;;;;;;5058847;28;20036;-69
2022/12/10 09:41:31;;;;;;;5.18;3.72;;;18.90;56.30;;;;;;5053314;28;20129;-70
2022/12/10 09:44:22;;;;;;;4.75;3.67;;;18.80;56.20;;;;;;5064010;28;20087;-70
2022/12/10 09:47:00;;;;;;;4.63;4.22;;;18.90;56.30;;;;;;5047025;28;20020;-70
2022/12/10 09:50:07;;;;;;;4.72;4.10;;;18.80;56.80;;;;;;5057698;28;20048;-70
2022/12/10 09:52:39;;;;;;;4.38;3.95;;;18.90;56.30;;;;;;5057668;28;20403;-69
2022/12/10 09:55:13;;;;;;;4.10;3.65;;;18.90;56.30;;;;;;5063091;28;20047;-70
2022/12/10 09:57:43;;;;;;;4.00;3.60;;;18.80;56.30;;;;;;5057063;28;20511;-69
2022/12/10 10:00:34;;;;;;;5.22;4.22;;;18.80;56.80;;;;;;5057164;28;20017;-69
2022/12/10 10:03:00;;;;;;;3.53;3.22;;;18.80;56.30;;;;;;5056613;28;20024;-69
2022/12/10 10:05:29;;;;;;;3.83;3.13;;;18.80;56.30;;;;;;5061546;28;20028;-70
2022/12/10 10:08:01;;;;;;;4.07;3.50;;;18.80;56.40;;;;;;5048440;28;20037;-68
2022/12/10 10:10:31;;;;;;;3.63;3.10;;;18.80;56.40;;;;;;5054287;28;20032;-69
2022/12/10 10:13:40;;;;;;;3.95;3.20;;;18.80;56.40;;;;;;5057878;28;20068;-69
2022/12/10 10:16:25;;;;;;;3.60;3.13;;;18.80;56.50;;;;;;5029910;28;20041;-70
2022/12/10 10:19:04;;;;;;;3.58;2.75;;;18.80;56.50;;;;;;5053394;28;20275;-70
2022/12/10 10:21:41;;;;;;;3.83;3.00;;;18.80;56.50;;;;;;5049372;28;20485;-70
2022/12/10 10:24:13;;;;;;;3.50;2.53;;;18.80;56.50;;;;;;5061322;28;20029;-69
2022/12/10 10:26:39;;;;;;;3.63;2.63;;;18.80;56.50;;;;;;5061973;28;20032;-70
2022/12/10 10:29:08;;;;;;;3.53;2.80;;;18.80;56.50;;;;;;5065310;28;20029;-69
2022/12/10 10:31:37;;;;;;;3.00;2.60;;;18.80;56.50;;;;;;5057137;28;20531;-69
2022/12/10 10:34:11;;;;;;;3.63;2.60;;;18.80;56.60;;;;;;5054235;28;20029;-69
2022/12/10 10:36:38;;;;;;;3.35;2.40;;;18.80;56.60;;;;;;5046215;28;20033;-69
2022/12/10 10:39:18;;;;;;;3.03;2.50;;;18.80;56.60;;;;;;5053795;28;20498;-69
2022/12/10 10:41:46;;;;;;;3.35;2.50;;;18.80;56.60;;;;;;5060038;28;20133;-68
2022/12/10 10:44:18;;;;;;;3.53;2.45;;;18.80;56.70;;;;;;5050533;28;20041;-68
2022/12/10 10:46:49;;;;;;;4.00;2.20;;;18.80;56.60;;;;;;5049419;28;20025;-68
2022/12/10 10:49:21;;;;;;;2.80;2.10;;;18.80;56.70;;;;;;5040659;28;20032;-70
2022/12/10 10:51:47;;;;;;;4.07;2.53;;;18.80;56.70;;;;;;5029075;28;20052;-69
2022/12/10 10:54:33;;;;;;;2.85;2.30;;;18.80;56.70;;;;;;5059979;28;20051;-68
2022/12/10 10:57:03;;;;;;;5.13;2.10;;;18.80;56.70;;;;;;5043228;28;20478;-71
2022/12/10 10:59:36;;;;;;;4.72;2.40;;;18.80;56.70;;;;;;5045473;28;20036;-71
2022/12/10 11:02:17;;;;;;;3.25;2.03;;;18.80;56.70;;;;;;5055402;28;20083;-70
2022/12/10 11:04:51;;;;;;;3.33;2.00;;;18.90;56.70;;;;;;5050858;28;20052;-70
2022/12/10 11:07:39;;;;;;;3.05;2.10;;;18.80;56.70;;;;;;5045727;28;20116;-70
2022/12/10 11:10:18;;;;;;;3.28;2.20;;;18.90;56.80;;;;;;5048318;28;20025;-71
2022/12/10 11:12:53;;;;;;;4.22;2.08;;;18.90;56.80;;;;;;5049477;28;20033;-71
2022/12/10 11:15:22;;;;;;;3.63;2.10;;;18.90;56.80;;;;;;5048030;28;20618;-71
2022/12/10 11:17:49;;;;;;;3.00;2.15;;;18.90;56.80;;;;;;5054226;28;20408;-70
2022/12/10 11:20:22;;;;;;;3.65;2.20;;;18.90;56.80;;;;;;5046306;28;20048;-71
2022/12/10 11:22:55;;;;;;;2.50;1.73;;;18.90;56.80;;;;;;5055300;28;20040;-70
2022/12/10 11:25:39;;;;;;;3.80;2.20;;;18.90;56.80;;;;;;5050517;28;20029;-70
2022/12/10 11:28:38;;;;;;;3.30;1.80;;;18.90;56.80;;;;;;5050987;28;20040;-70
2022/12/10 11:31:24;;;;;;;3.03;1.90;;;18.90;56.80;;;;;;5048536;28;20385;-69
2022/12/10 11:34:14;;;;;;;3.67;2.05;;;18.90;56.80;;;;;;5049545;28;20025;-70
2022/12/10 11:37:08;;;;;;;2.75;2.00;;;18.90;56.70;;;;;;5044948;28;20048;-70
2022/12/10 11:39:56;;;;;;;2.90;1.83;;;18.90;56.80;;;;;;5048706;28;20032;-70
2022/12/10 11:42:49;;;;;;;2.95;2.00;;;18.80;56.70;;;;;;5045996;28;20026;-71
2022/12/10 11:45:27;;;;;;;4.32;2.17;;;18.90;56.80;;;;;;5048535;28;20043;-70
2022/12/10 11:48:04;;;;;;;3.72;1.90;;;18.90;56.80;;;;;;5046947;28;20121;-69
2022/12/10 11:50:51;;;;;;;2.50;1.80;;;18.90;56.80;;;;;;5047998;28;20025;-69
2022/12/10 11:53:42;;;;;;;2.60;1.75;;;18.90;56.80;;;;;;5048486;28;20075;-70
2022/12/10 11:56:28;;;;;;;3.35;1.90;;;18.90;56.80;;;;;;5049128;28;20032;-70
2022/12/10 11:59:16;;;;;;;3.47;1.80;;;18.90;56.80;;;;;;5047733;28;20068;-70
2022/12/10 12:02:16;;;;;;;3.00;1.73;;;18.90;56.80;;;;;;5051680;28;20036;-70
2022/12/10 12:04:47;;;;;;;2.95;1.90;;;18.90;56.80;;;;;;5044981;28;20041;-71
2022/12/10 12:07:33;;;;;;;2.65;1.90;;;18.90;56.80;;;;;;5058619;28;20025;-71
2022/12/10 12:10:23;;;;;;;2.83;1.73;;;18.90;56.90;;;;;;5040050;28;20025;-71
2022/12/10 12:13:05;;;;;;;3.53;1.92;;;18.90;56.80;;;;;;5054450;28;20036;-70
2022/12/10 12:15:39;;;;;;;3.40;1.73;;;18.90;56.90;;;;;;5038153;28;20109;-69
2022/12/10 12:18:16;;;;;;;2.85;1.80;;;18.90;57.00;;;;;;5043377;28;20052;-70
2022/12/10 12:20:49;;;;;;;3.42;1.90;;;18.90;56.90;;;;;;5028033;28;20466;-70
2022/12/10 12:23:41;;;;;;;3.08;1.80;;;18.90;56.90;;;;;;5054533;28;20383;-70
2022/12/10 12:26:16;;;;;;;2.70;1.60;;;18.90;57.00;;;;;;5045985;28;20041;-71
2022/12/10 12:29:13;;;;;;;3.30;1.73;;;18.90;57.50;;;;;;5039349;28;20087;-70
2022/12/10 12:31:42;;;;;;;3.22;1.73;;;18.90;57.00;;;;;;5044728;28;20056;-70
2022/12/10 12:34:45;;;;;;;2.88;1.83;;;18.90;57.10;;;;;;5041547;28;20036;-70
2022/12/10 12:37:15;;;;;;;4.07;2.15;;;18.90;57.10;;;;;;5034603;28;20463;-71
2022/12/10 12:40:03;;;;;;;2.83;1.80;;;18.90;57.20;;;;;;5038934;28;20020;-72
2022/12/10 12:42:38;;;;;;;3.50;1.80;;;18.90;57.30;;;;;;5060128;28;20499;-71
2022/12/10 12:45:04;;;;;;;3.13;1.92;;;18.90;57.40;;;;;;5049998;28;20442;-71
2022/12/10 12:47:42;;;;;;;2.50;1.60;;;18.90;57.60;;;;;;5056196;28;20033;-71
2022/12/10 12:50:24;;;;;;;2.53;1.67;;;18.80;57.60;;;;;;5044704;28;20017;-69
2022/12/10 12:52:56;;;;;;;2.15;1.45;;;18.80;57.80;;;;;;5053813;28;20020;-69
2022/12/10 12:55:39;;;;;;;3.47;1.80;;;18.90;57.90;;;;;;5052026;28;20048;-69
2022/12/10 12:58:36;;;;;;;3.30;2.00;;;18.80;58.00;;;;;;5039410;28;20484;-70
2022/12/10 13:01:21;;;;;;;3.45;1.67;;;18.90;58.10;;;;;;5045970;28;20043;-69
2022/12/10 13:03:49;;;;;;;2.85;1.52;;;18.80;58.20;;;;;;5050583;28;20029;-69
2022/12/10 13:06:15;;;;;;;3.05;1.67;;;18.80;58.30;;;;;;5045381;28;20184;-69
2022/12/10 13:08:49;;;;;;;2.80;1.55;;;18.80;58.30;;;;;;5050566;28;20097;-70
2022/12/10 13:11:31;;;;;;;2.80;1.77;;;18.90;58.40;;;;;;5045301;28;20025;-71
2022/12/10 13:14:09;;;;;;;2.90;1.88;;;18.80;58.40;;;;;;5054835;28;20475;-70
2022/12/10 13:16:37;;;;;;;4.03;1.60;;;18.80;58.60;;;;;;5024300;28;20025;-72